| time (UTC) | temp C | wind direction | speed KPH | gust KPH | rain 1hr cm | rain 24hr cm | rain mn cm | humidity % | barometer mb |
| 20260507203252 | -17 | 277 | 8.0 | 20.9 | 0.00 | 0.00 | 0.00 | 1006.1 | |
| 20260507202748 | -17 | 287 | 9.7 | 12.9 | 0.00 | 0.00 | 0.00 | 1006.2 | |
| 20260507202244 | -17 | 246 | 4.8 | 12.9 | 0.00 | 0.00 | 0.00 | 1006.0 | |
| 20260507201738 | -17 | 218 | 3.2 | 9.7 | 0.00 | 0.00 | 0.00 | 1006.2 | |
| 20260507201236 | -17 | 256 | 9.7 | 20.9 | 0.00 | 0.00 | 0.00 | 1006.3 | |
| 20260507200732 | -17 | 50 | 6.4 | 11.3 | 0.00 | 0.00 | 0.00 | 1006.4 | |
| 20260507200228 | -17 | 327 | 8.0 | 12.9 | 0.00 | 0.00 | 0.00 | 1006.3 | |
| 20260507195724 | -17 | 233 | 9.7 | 14.5 | 0.00 | 0.00 | 0.00 | 1006.3 | |
| 20260507195222 | -17 | 219 | 3.2 | 11.3 | 0.00 | 0.00 | 0.00 | 1006.3 | |
| 20260507194719 | -17 | 231 | 6.4 | 11.3 | 0.00 | 0.00 | 0.00 | 1006.4 | |
| 20260507194215 | -17 | 293 | 6.4 | 9.7 | 0.00 | 0.00 | 0.00 | 1006.3 | |
| 20260507193712 | -17 | 280 | 8.0 | 9.7 | 0.00 | 0.00 | 0.00 | 1006.4 | |
| 20260507193208 | -17 | 266 | 6.4 | 6.4 | 0.00 | 0.00 | 0.00 | 1006.7 | |
| 20260507192704 | -17 | 251 | 6.4 | 12.9 | 0.00 | 0.00 | 0.00 | 1006.7 | |
| 20260507192156 | -17 | 19 | 6.4 | 20.9 | 0.00 | 0.00 | 0.00 | 1007.0 | |
| 20260507191651 | -17 | 270 | 6.4 | 12.9 | 0.00 | 0.00 | 0.00 | 1006.7 | |
| 20260507191148 | -17 | 258 | 8.0 | 11.3 | 0.00 | 0.00 | 0.00 | 1006.7 | |
| 20260507190645 | -17 | 224 | 6.4 | 14.5 | 0.00 | 0.00 | 0.00 | 1006.8 | |
| 20260507190144 | -17 | 355 | 14.5 | 16.1 | 0.00 | 0.00 | 0.00 | 1006.6 | |
| 20260507185642 | -17 | 216 | 6.4 | 11.3 | 0.00 | 0.00 | 0.00 | 1006.7 | |
| 20260507185138 | -17 | 259 | 6.4 | 11.3 | 0.00 | 0.00 | 0.00 | 1006.7 | |
| 20260507184636 | -17 | 243 | 6.4 | 12.9 | 0.00 | 0.00 | 0.00 | 1007.0 | |
| 20260507184134 | -17 | 221 | 3.2 | 9.7 | 0.00 | 0.00 | 0.00 | 1006.8 | |
| 20260507183630 | -17 | 255 | 3.2 | 11.3 | 0.00 | 0.00 | 0.00 | 1007.2 | |
| 20260507183127 | -17 | 242 | 3.2 | 11.3 | 0.00 | 0.00 | 0.00 | 1007.3 | |
| 20260507182624 | -17 | 246 | 4.8 | 12.9 | 0.00 | 0.00 | 0.00 | 1007.2 | |
| 20260507182120 | -17 | 3 | 11.3 | 14.5 | 0.00 | 0.00 | 0.00 | 1007.4 | |
| 20260507181617 | -17 | 299 | 14.5 | 22.5 | 0.00 | 0.00 | 0.00 | 1007.1 | |
| 20260507181113 | -17 | 263 | 16.1 | 17.7 | 0.00 | 0.00 | 0.00 | 1007.3 | |
| 20260507180609 | -17 | 326 | 20.9 | 24.1 | 0.00 | 0.00 | 0.00 | 1007.4 | |
| 20260507180107 | -17 | 237 | 16.1 | 17.7 | 0.00 | 0.00 | 0.00 | 1007.3 | |
| 20260507175602 | -17 | 227 | 9.7 | 20.9 | 0.00 | 0.00 | 0.00 | 1007.3 | |
| 20260507175100 | -17 | 259 | 6.4 | 12.9 | 0.00 | 0.00 | 0.00 | 1007.4 | |
| 20260507174557 | -17 | 338 | 8.0 | 11.3 | 0.00 | 0.00 | 0.00 | 1007.4 | |
| 20260507174055 | -17 | 232 | 4.8 | 9.7 | 0.00 | 0.00 | 0.00 | 1007.6 | |
| 20260507173552 | -17 | 221 | 3.2 | 11.3 | 0.00 | 0.00 | 0.00 | 1007.7 | |
| 20260507173049 | -17 | 332 | 9.7 | 20.9 | 0.00 | 0.00 | 0.00 | 1007.7 | |
| 20260507172544 | -17 | 233 | 6.4 | 14.5 | 0.00 | 0.00 | 0.00 | 1007.6 | |
| 20260507172042 | -17 | 276 | 12.9 | 17.7 | 0.00 | 0.00 | 0.00 | 1007.6 | |
| 20260507171537 | -17 | 268 | 8.0 | 11.3 | 0.00 | 0.00 | 0.00 | 1007.6 | |
| 20260507171034 | -17 | 234 | 8.0 | 12.9 | 0.00 | 0.00 | 0.00 | 1007.7 | |
| 20260507170531 | -17 | 220 | 1.6 | 9.7 | 0.00 | 0.00 | 0.00 | 1007.8 | |
| 20260507170028 | -17 | 245 | 8.0 | 9.7 | 0.00 | 0.00 | 0.00 | 1008.1 | |
| 20260507165524 | -17 | 238 | 6.4 | 11.3 | 0.00 | 0.00 | 0.00 | 1007.9 | |
| 20260507165020 | -17 | 244 | 4.8 | 22.5 | 0.00 | 0.00 | 0.00 | 1008.2 | |
| 20260507164517 | -17 | 226 | 4.8 | 12.9 | 0.00 | 0.00 | 0.00 | 1008.0 | |
| 20260507164014 | -17 | 260 | 8.0 | 11.3 | 0.00 | 0.00 | 0.00 | 1008.1 | |
| 20260507163511 | -17 | 245 | 9.7 | 11.3 | 0.00 | 0.00 | 0.00 | 1008.0 | |
| 20260507163009 | -17 | 233 | 6.4 | 9.7 | 0.00 | 0.00 | 0.00 | 1008.1 | |
| 20260507162508 | -17 | 228 | 6.4 | 9.7 | 0.00 | 0.00 | 0.00 | 1008.1 | |
| 20260507162006 | -17 | 219 | 6.4 | 14.5 | 0.00 | 0.00 | 0.00 | 1008.2 | |
| 20260507161502 | -17 | 216 | 3.2 | 11.3 | 0.00 | 0.00 | 0.00 | 1008.2 | |
| 20260507160959 | -17 | 215 | 8.0 | 11.3 | 0.00 | 0.00 | 0.00 | 1008.3 | |
| 20260507160455 | -17 | 229 | 9.7 | 12.9 | 0.00 | 0.00 | 0.00 | 1008.5 | |
| 20260507155950 | -17 | 229 | 6.4 | 11.3 | 0.00 | 0.00 | 0.00 | 1008.3 | |
| 20260507155447 | -17 | 254 | 3.2 | 12.9 | 0.00 | 0.00 | 0.00 | 1008.5 | |
| 20260507154944 | -17 | 327 | 11.3 | 16.1 | 0.00 | 0.00 | 0.00 | 1008.7 | |
| 20260507154440 | -17 | 297 | 11.3 | 16.1 | 0.00 | 0.00 | 0.00 | 1008.6 | |
| 20260507153938 | -17 | 232 | 6.4 | 16.1 | 0.00 | 0.00 | 0.00 | 1008.6 | |
| 20260507153435 | -17 | 313 | 9.7 | 14.5 | 0.00 | 0.00 | 0.00 | 1008.8 | |
| 20260507152931 | -17 | 224 | 6.4 | 11.3 | 0.00 | 0.00 | 0.00 | 1009.0 | |
| 20260507152427 | -17 | 232 | 8.0 | 11.3 | 0.00 | 0.00 | 0.00 | 1008.8 | |
| 20260507151923 | -17 | 224 | 4.8 | 11.3 | 0.00 | 0.00 | 0.00 | 1009.1 | |
| 20260507151420 | -17 | 221 | 6.4 | 17.7 | 0.00 | 0.00 | 0.00 | 1009.1 | |
| 20260507150917 | -17 | 257 | 9.7 | 14.5 | 0.00 | 0.00 | 0.00 | 1008.9 | |
| 20260507150413 | -17 | 252 | 8.0 | 11.3 | 0.00 | 0.00 | 0.00 | 1009.2 | |
| 20260507145910 | -17 | 327 | 9.7 | 16.1 | 0.00 | 0.00 | 0.00 | 1009.1 | |
| 20260507145406 | -17 | 218 | 1.6 | 3.2 | 0.00 | 0.00 | 0.00 | 1009.1 | |
| 20260507144903 | -17 | 266 | 11.3 | 16.1 | 0.00 | 0.00 | 0.00 | 1009.5 | |
| 20260507144400 | -17 | 217 | 1.6 | 12.9 | 0.00 | 0.00 | 0.00 | 1009.1 | |
| 20260507143857 | -17 | 266 | 6.4 | 11.3 | 0.00 | 0.00 | 0.00 | 1009.1 | |
| 20260507143354 | -17 | 218 | 3.2 | 9.7 | 0.00 | 0.00 | 0.00 | 1009.1 | |
| 20260507142850 | -17 | 251 | 6.4 | 11.3 | 0.00 | 0.00 | 0.00 | 1009.2 | |
| 20260507142347 | -17 | 244 | 11.3 | 14.5 | 0.00 | 0.00 | 0.00 | 1009.5 | |
| 20260507141843 | -17 | 251 | 8.0 | 11.3 | 0.00 | 0.00 | 0.00 | 1009.4 | |
| 20260507141340 | -17 | 228 | 12.9 | 14.5 | 0.00 | 0.00 | 0.00 | 1009.1 | |
| 20260507140837 | -17 | 220 | 3.2 | 4.8 | 0.00 | 0.00 | 0.00 | 1009.2 | |
| 20260507140333 | -17 | 217 | 3.2 | 6.4 | 0.00 | 0.00 | 0.00 | 1009.5 | |
| 20260507135831 | -17 | 223 | 3.2 | 9.7 | 0.00 | 0.00 | 0.00 | 1009.5 | |
| 20260507135328 | -17 | 277 | 8.0 | 12.9 | 0.00 | 0.00 | 0.00 | 1009.4 | |
| 20260507134825 | -17 | 237 | 6.4 | 11.3 | 0.00 | 0.00 | 0.00 | 1009.4 | |
| 20260507134321 | -17 | 236 | 3.2 | 6.4 | 0.00 | 0.00 | 0.00 | 1009.2 | |
| 20260507133817 | -17 | 254 | 9.7 | 11.3 | 0.00 | 0.00 | 0.00 | 1009.2 | |
| 20260507133313 | -17 | 223 | 8.0 | 11.3 | 0.00 | 0.00 | 0.00 | 1009.5 | |
| 20260507132812 | -17 | 269 | 6.4 | 12.9 | 0.00 | 0.00 | 0.00 | 1009.5 | |
| 20260507132308 | -17 | 232 | 4.8 | 6.4 | 0.00 | 0.00 | 0.00 | 1009.5 | |
| 20260507131805 | -17 | 238 | 6.4 | 9.7 | 0.00 | 0.00 | 0.00 | 1009.2 | |
| 20260507131302 | -17 | 295 | 6.4 | 11.3 | 0.00 | 0.00 | 0.00 | 1009.4 | |
| 20260507130758 | -17 | 243 | 3.2 | 6.4 | 0.00 | 0.00 | 0.00 | 1009.6 | |
| 20260507130256 | -17 | 239 | 8.0 | 11.3 | 0.00 | 0.00 | 0.00 | 1009.4 | |
| 20260507125755 | -17 | 236 | 9.7 | 11.3 | 0.00 | 0.00 | 0.00 | 1009.4 | |
| 20260507125252 | -17 | 217 | 0.0 | 4.8 | 0.00 | 0.00 | 0.00 | 1009.4 | |
| 20260507124748 | -17 | 224 | 6.4 | 6.4 | 0.00 | 0.00 | 0.00 | 1009.7 | |
| 20260507124245 | -17 | 248 | 8.0 | 12.9 | 0.00 | 0.00 | 0.00 | 1009.5 | |
| 20260507123744 | -17 | 228 | 4.8 | 11.3 | 0.00 | 0.00 | 0.00 | 1009.4 | |
| 20260507123241 | -17 | 219 | 3.2 | 9.7 | 0.00 | 0.00 | 0.00 | 1009.4 | |
| 20260507122736 | -17 | 249 | 9.7 | 11.3 | 0.00 | 0.00 | 0.00 | 1009.5 | |
| 20260507122232 | -17 | 333 | 9.7 | 12.9 | 0.00 | 0.00 | 0.00 | 1009.4 | |
| 20260507121728 | -17 | 263 | 6.4 | 12.9 | 0.00 | 0.00 | 0.00 | 1009.2 | |
| 20260507121224 | -17 | 222 | 1.6 | 6.4 | 0.00 | 0.00 | 0.00 | 1009.2 | |
| 20260507120720 | -17 | 235 | 4.8 | 4.8 | 0.00 | 0.00 | 0.00 | 1009.5 | |
| 20260507120218 | -17 | 235 | 4.8 | 4.8 | 0.00 | 0.00 | 0.00 | 1009.2 | |
| 20260507115713 | -17 | 223 | 3.2 | 6.4 | 0.00 | 0.00 | 0.00 | 1009.2 | |
| 20260507115209 | -17 | 228 | 3.2 | 4.8 | 0.00 | 0.00 | 0.00 | 1009.2 | |
| 20260507114705 | -17 | 233 | 3.2 | 6.4 | 0.00 | 0.00 | 0.00 | 1009.1 | |
| 20260507114203 | -17 | 222 | 4.8 | 9.7 | 0.00 | 0.00 | 0.00 | 1009.4 | |
| 20260507113700 | -17 | 228 | 4.8 | 6.4 | 0.00 | 0.00 | 0.00 | 1009.2 | |
| 20260507113157 | -17 | 230 | 3.2 | 6.4 | 0.00 | 0.00 | 0.00 | 1009.0 | |
| 20260507112654 | -17 | 231 | 3.2 | 4.8 | 0.00 | 0.00 | 0.00 | 1009.2 | |
| 20260507112151 | -17 | 224 | 3.2 | 6.4 | 0.00 | 0.00 | 0.00 | 1009.0 | |
| 20260507111648 | -17 | 218 | 3.2 | 4.8 | 0.00 | 0.00 | 0.00 | 1009.1 | |
| 20260507111145 | -17 | 224 | 3.2 | 6.4 | 0.00 | 0.00 | 0.00 | 1009.0 | |
| 20260507110641 | -17 | 219 | 1.6 | 4.8 | 0.00 | 0.00 | 0.00 | 1009.2 | |
| 20260507110138 | -17 | 220 | 3.2 | 4.8 | 0.00 | 0.00 | 0.00 | 1009.0 | |
| 20260507105635 | -17 | 221 | 1.6 | 3.2 | 0.00 | 0.00 | 0.00 | 1008.7 | |
| 20260507105131 | -17 | 222 | 3.2 | 4.8 | 0.00 | 0.00 | 0.00 | 1008.7 | |
| 20260507104628 | -17 | 223 | 3.2 | 3.2 | 0.00 | 0.00 | 0.00 | 1008.8 | |
| 20260507104125 | -17 | 217 | 1.6 | 4.8 | 0.00 | 0.00 | 0.00 | 1008.8 | |
| 20260507103620 | -17 | 222 | 3.2 | 3.2 | 0.00 | 0.00 | 0.00 | 1008.6 | |
| 20260507103118 | -17 | 217 | 0.0 | 3.2 | 0.00 | 0.00 | 0.00 | 1008.6 | |
| 20260507102614 | -17 | 220 | 1.6 | 3.2 | 0.00 | 0.00 | 0.00 | 1008.9 | |
| 20260507102110 | -17 | 221 | 3.2 | 3.2 | 0.00 | 0.00 | 0.00 | 1008.8 | |
| 20260507101606 | -17 | 218 | 3.2 | 4.8 | 0.00 | 0.00 | 0.00 | 1008.7 | |
| 20260507101102 | -17 | 220 | 3.2 | 4.8 | 0.00 | 0.00 | 0.00 | 1008.7 | |
| 20260507100559 | -17 | 216 | 0.0 | 0.0 | 0.00 | 0.00 | 0.00 | 1008.6 | |
| 20260507100058 | -17 | 221 | 1.6 | 4.8 | 0.00 | 0.00 | 0.00 | 1008.6 | |
| 20260507095555 | -17 | 217 | 1.6 | 1.6 | 0.00 | 0.00 | 0.00 | 1008.7 | |
| 20260507095052 | -17 | 220 | 1.6 | 3.2 | 0.00 | 0.00 | 0.00 | 1008.7 | |
| 20260507094548 | -17 | 221 | 3.2 | 4.8 | 0.00 | 0.00 | 0.00 | 1008.8 | |
| 20260507094045 | -17 | 260 | 6.4 | 9.7 | 0.00 | 0.00 | 0.00 | 1008.6 | |
| 20260507093543 | -17 | 228 | 4.8 | 6.4 | 0.00 | 0.00 | 0.00 | 1008.4 | |
| 20260507093041 | -17 | 241 | 6.4 | 12.9 | 0.00 | 0.00 | 0.00 | 1008.5 | |
| 20260507092537 | -17 | 251 | 8.0 | 11.3 | 0.00 | 0.00 | 0.00 | 1008.2 | |
| 20260507092034 | -17 | 319 | 11.3 | 12.9 | 0.00 | 0.00 | 0.00 | 1008.2 | |
| 20260507091531 | -17 | 230 | 4.8 | 9.7 | 0.00 | 0.00 | 0.00 | 1008.5 | |
| 20260507091027 | -17 | 231 | 4.8 | 6.4 | 0.00 | 0.00 | 0.00 | 1008.4 | |
| 20260507090523 | -17 | 242 | 3.2 | 9.7 | 0.00 | 0.00 | 0.00 | 1008.7 | |
| 20260507090020 | -17 | 236 | 4.8 | 4.8 | 0.00 | 0.00 | 0.00 | 1008.4 | |
| 20260507085517 | -17 | 242 | 6.4 | 6.4 | 0.00 | 0.00 | 0.00 | 1008.6 | |
| 20260507085014 | -17 | 216 | 1.6 | 4.8 | 0.00 | 0.00 | 0.00 | 1008.7 | |
| 20260507084510 | -17 | 234 | 4.8 | 6.4 | 0.00 | 0.00 | 0.00 | 1008.7 | |
| 20260507084007 | -17 | 229 | 1.6 | 3.2 | 0.00 | 0.00 | 0.00 | 1008.5 | |
| 20260507083503 | -17 | 257 | 6.4 | 9.7 | 0.00 | 0.00 | 0.00 | 1008.7 | |
| 20260507083000 | -17 | 237 | 4.8 | 14.5 | 0.00 | 0.00 | 0.00 | 1008.6 | |
| 20260507082456 | -17 | 229 | 6.4 | 11.3 | 0.00 | 0.00 | 0.00 | 1008.7 | |
| 20260507081953 | -17 | 228 | 4.8 | 6.4 | 0.00 | 0.00 | 0.00 | 1008.9 | |
| 20260507081449 | -17 | 237 | 4.8 | 6.4 | 0.00 | 0.00 | 0.00 | 1008.7 | |
| 20260507080946 | -17 | 239 | 6.4 | 9.7 | 0.00 | 0.00 | 0.00 | 1008.5 | |
| 20260507080442 | -17 | 222 | 3.2 | 9.7 | 0.00 | 0.00 | 0.00 | 1008.5 | |
| 20260507075937 | -17 | 238 | 6.4 | 9.7 | 0.00 | 0.00 | 0.00 | 1008.5 | |
| 20260507075434 | -17 | 254 | 6.4 | 9.7 | 0.00 | 0.00 | 0.00 | 1008.7 | |
| 20260507074931 | -17 | 248 | 4.8 | 11.3 | 0.00 | 0.00 | 0.00 | 1008.6 | |
| 20260507074428 | -17 | 232 | 4.8 | 12.9 | 0.00 | 0.00 | 0.00 | 1008.7 | |
| 20260507073925 | -17 | 291 | 8.0 | 12.9 | 0.00 | 0.00 | 0.00 | 1008.8 | |
| 20260507073422 | -17 | 237 | 4.8 | 6.4 | 0.00 | 0.00 | 0.00 | 1008.8 | |
| 20260507072919 | -17 | 343 | 9.7 | 12.9 | 0.00 | 0.00 | 0.00 | 1008.9 | |
| 20260507072416 | -17 | 344 | 12.9 | 14.5 | 0.00 | 0.00 | 0.00 | 1008.8 | |
| 20260507071914 | -17 | 288 | 8.0 | 9.7 | 0.00 | 0.00 | 0.00 | 1008.8 | |
| 20260507071410 | -17 | 249 | 8.0 | 17.7 | 0.00 | 0.00 | 0.00 | 1008.8 | |
| 20260507070906 | -17 | 243 | 4.8 | 4.8 | 0.00 | 0.00 | 0.00 | 1008.9 | |
| 20260507070404 | -17 | 290 | 8.0 | 11.3 | 0.00 | 0.00 | 0.00 | 1008.7 | |
| 20260507065901 | -17 | 276 | 6.4 | 9.7 | 0.00 | 0.00 | 0.00 | 1008.6 | |
| 20260507065357 | -17 | 219 | 4.8 | 6.4 | 0.00 | 0.00 | 0.00 | 1008.5 | |
| 20260507064854 | -17 | 214 | 3.2 | 4.8 | 0.00 | 0.00 | 0.00 | 1008.5 | |
| 20260507064353 | -17 | 232 | 3.2 | 9.7 | 0.00 | 0.00 | 0.00 | 1008.3 | |
| 20260507063851 | -17 | 319 | 14.5 | 14.5 | 0.00 | 0.00 | 0.00 | 1008.5 | |
| 20260507063347 | -17 | 268 | 4.8 | 17.7 | 0.00 | 0.00 | 0.00 | 1008.4 | |
| 20260507062844 | -17 | 298 | 9.7 | 14.5 | 0.00 | 0.00 | 0.00 | 1008.5 | |
| 20260507062341 | -17 | 242 | 4.8 | 6.4 | 0.00 | 0.00 | 0.00 | 1008.1 | |
| 20260507061839 | -17 | 231 | 4.8 | 9.7 | 0.00 | 0.00 | 0.00 | 1008.3 | |
| 20260507061337 | -17 | 269 | 12.9 | 14.5 | 0.00 | 0.00 | 0.00 | 1008.1 | |
| 20260507060835 | -17 | 228 | 3.2 | 6.4 | 0.00 | 0.00 | 0.00 | 1007.8 | |
| 20260507060331 | -17 | 232 | 8.0 | 11.3 | 0.00 | 0.00 | 0.00 | 1007.9 | |
| 20260507055828 | -17 | 243 | 8.0 | 14.5 | 0.00 | 0.00 | 0.00 | 1007.8 | |
| 20260507055323 | -17 | 222 | 4.8 | 4.8 | 0.00 | 0.00 | 0.00 | 1008.1 | |
| 20260507054820 | -17 | 228 | 4.8 | 6.4 | 0.00 | 0.00 | 0.00 | 1008.0 | |
| 20260507054316 | -17 | 217 | 0.0 | 3.2 | 0.00 | 0.00 | 0.00 | 1008.0 | |
| 20260507053814 | -17 | 231 | 4.8 | 6.4 | 0.00 | 0.00 | 0.00 | 1008.0 | |
| 20260507053311 | -17 | 219 | 3.2 | 6.4 | 0.00 | 0.00 | 0.00 | 1008.1 | |
| 20260507052810 | -17 | 222 | 3.2 | 6.4 | 0.00 | 0.00 | 0.00 | 1007.9 | |
| 20260507052307 | -17 | 219 | 4.8 | 9.7 | 0.00 | 0.00 | 0.00 | 1008.0 | |
| 20260507051804 | -17 | 224 | 3.2 | 9.7 | 0.00 | 0.00 | 0.00 | 1007.9 | |
| 20260507051301 | -17 | 238 | 4.8 | 6.4 | 0.00 | 0.00 | 0.00 | 1007.9 | |
| 20260507050758 | -17 | 229 | 1.6 | 4.8 | 0.00 | 0.00 | 0.00 | 1008.1 | |
| 20260507050254 | -17 | 216 | 1.6 | 3.2 | 0.00 | 0.00 | 0.00 | 1008.0 | |
| 20260507045751 | -17 | 218 | 1.6 | 6.4 | 0.00 | 0.00 | 0.00 | 1008.0 | |
| 20260507045247 | -17 | 217 | 6.4 | 6.4 | 0.00 | 0.00 | 0.00 | 1008.1 | |
| 20260507044745 | -17 | 222 | 4.8 | 6.4 | 0.00 | 0.00 | 0.00 | 1008.4 | |
| 20260507044241 | -17 | 218 | 4.8 | 9.7 | 0.00 | 0.00 | 0.00 | 1008.3 | |
| 20260507043737 | -17 | 219 | 1.6 | 4.8 | 0.00 | 0.00 | 0.00 | 1008.0 | |
| 20260507043234 | -17 | 231 | 3.2 | 6.4 | 0.00 | 0.00 | 0.00 | 1008.3 | |
| 20260507042731 | -17 | 220 | 4.8 | 6.4 | 0.00 | 0.00 | 0.00 | 1008.2 | |
| 20260507042225 | -17 | 220 | 1.6 | 3.2 | 0.00 | 0.00 | 0.00 | 1008.4 | |
| 20260507041723 | -17 | 220 | 0.0 | 0.0 | 0.00 | 0.00 | 0.00 | 1008.2 | |
| 20260507041220 | -17 | 221 | 1.6 | 3.2 | 0.00 | 0.00 | 0.00 | 1008.2 | |
| 20260507040717 | -17 | 220 | 0.0 | 1.6 | 0.00 | 0.00 | 0.00 | 1008.2 | |
| 20260507040213 | -17 | 221 | 3.2 | 3.2 | 0.00 | 0.00 | 0.00 | 1008.1 | |
| 20260507035709 | -17 | 220 | 1.6 | 3.2 | 0.00 | 1.70 | 1.70 | 1008.1 | |
| 20260507035205 | -17 | 220 | 0.0 | 3.2 | 0.00 | 1.70 | 1.70 | 1008.1 | |
| 20260507034702 | -17 | 220 | 0.0 | 0.0 | 0.00 | 1.70 | 1.70 | 1008.1 | |
| 20260507034159 | -17 | 220 | 0.0 | 0.0 | 0.00 | 1.70 | 1.70 | 1008.0 | |
| 20260507033658 | -17 | 220 | 0.0 | 3.2 | 0.00 | 1.70 | 1.70 | 1008.0 | |
| 20260507033154 | -17 | 220 | 3.2 | 3.2 | 0.00 | 1.70 | 1.70 | 1008.2 | |
| 20260507032652 | -17 | 220 | 0.0 | 0.0 | 0.00 | 1.70 | 1.70 | 1008.1 | |
| 20260507032147 | -17 | 220 | 1.6 | 3.2 | 0.00 | 1.70 | 1.70 | 1007.8 | |
| 20260507031645 | -17 | 220 | 3.2 | 3.2 | 0.00 | 1.70 | 1.70 | 1008.1 | |
| 20260507031141 | -17 | 220 | 1.6 | 3.2 | 0.00 | 1.70 | 1.70 | 1008.1 | |
| 20260507030638 | -17 | 220 | 3.2 | 4.8 | 0.00 | 1.70 | 1.70 | 1008.1 | |
| 20260507030136 | -17 | 220 | 1.6 | 3.2 | 0.00 | 1.70 | 1.70 | 1008.2 | |
| 20260507025633 | -17 | 220 | 0.0 | 0.0 | 0.00 | 1.70 | 1.70 | 1008.1 | |
| 20260507025129 | -17 | 220 | 0.0 | 1.6 | 0.00 | 1.70 | 1.70 | 1008.2 | |
| 20260507024628 | -17 | 220 | 0.0 | 1.6 | 0.00 | 1.70 | 1.70 | 1008.5 | |
| 20260507024124 | -17 | 220 | 1.6 | 1.6 | 0.00 | 1.70 | 1.70 | 1008.5 | |
| 20260507023620 | -17 | 220 | 0.0 | 0.0 | 0.00 | 1.70 | 1.70 | 1008.3 | |
| 20260507023118 | -17 | 220 | 1.6 | 3.2 | 0.00 | 1.70 | 1.70 | 1008.3 | |
| 20260507022614 | -17 | 220 | 0.0 | 0.0 | 0.00 | 1.70 | 1.70 | 1008.3 | |
| 20260507022110 | -17 | 220 | 0.0 | 0.0 | 0.00 | 1.70 | 1.70 | 1008.1 | |
| 20260507021606 | -17 | 220 | 1.6 | 4.8 | 0.00 | 1.70 | 1.70 | 1008.9 | |
| 20260507021102 | -17 | 220 | 3.2 | 3.2 | 0.00 | 1.70 | 1.70 | 1008.7 | |
| 20260507020601 | -17 | 220 | 1.6 | 3.2 | 0.00 | 1.70 | 1.70 | 1008.6 | |
| 20260507020056 | -17 | 220 | 0.0 | 3.2 | 0.00 | 1.70 | 1.70 | 1008.5 | |
| 20260507015555 | -17 | 220 | 1.6 | 4.8 | 0.00 | 1.70 | 1.70 | 1008.7 | |
| 20260507015052 | -17 | 219 | 3.2 | 3.2 | 0.00 | 1.70 | 1.70 | 1008.8 | |
| 20260507014549 | -17 | 219 | 1.6 | 3.2 | 0.00 | 1.70 | 1.70 | 1008.8 | |
| 20260507014044 | -17 | 219 | 0.0 | 0.0 | 0.00 | 1.70 | 1.70 | 1008.7 | |
| 20260507013541 | -17 | 219 | 0.0 | 3.2 | 0.00 | 1.70 | 1.70 | 1008.7 | |
| 20260507013039 | -17 | 218 | 0.0 | 0.0 | 0.00 | 1.70 | 1.70 | 1008.6 | |
| 20260507012536 | -17 | 218 | 1.6 | 3.2 | 0.00 | 1.70 | 1.70 | 1008.8 | |
| 20260507012032 | -17 | 221 | 4.8 | 6.4 | 0.00 | 1.70 | 1.70 | 1008.5 | |
| 20260507011530 | -17 | 223 | 3.2 | 3.2 | 0.00 | 1.70 | 1.70 | 1008.3 | |
| 20260507011025 | -17 | 218 | 0.0 | 3.2 | 0.00 | 1.70 | 1.70 | 1008.6 | |
| 20260507010520 | -17 | 216 | 0.0 | 3.2 | 0.00 | 1.70 | 1.70 | 1008.5 | |
| 20260507010017 | -17 | 221 | 3.2 | 4.8 | 0.00 | 1.70 | 1.70 | 1008.5 | |
| 20260507005514 | -17 | 221 | 3.2 | 9.7 | 0.00 | 1.70 | 1.70 | 1008.7 | |
| 20260507005011 | -17 | 221 | 3.2 | 9.7 | 0.00 | 1.70 | 1.70 | 1008.5 | |
| 20260507004508 | -17 | 227 | 3.2 | 6.4 | 0.00 | 1.70 | 1.70 | 1008.2 | |
| 20260507004005 | -17 | 222 | 3.2 | 4.8 | 0.00 | 1.70 | 1.70 | 1008.2 | |
| 20260507003500 | -17 | 254 | 6.4 | 6.4 | 0.00 | 1.70 | 1.70 | 1008.1 | |
| 20260507002955 | -17 | 230 | 3.2 | 6.4 | 0.00 | 1.70 | 1.70 | 1008.0 | |
| 20260507002452 | -17 | 219 | 3.2 | 6.4 | 0.00 | 1.70 | 1.70 | 1007.9 | |
| 20260507001944 | -17 | 228 | 3.2 | 4.8 | 0.00 | 1.70 | 1.70 | 1007.9 | |
| 20260507001440 | -17 | 304 | 8.0 | 9.7 | 0.00 | 1.70 | 1.70 | 1007.8 | |
| 20260507000938 | -17 | 227 | 3.2 | 3.2 | 0.00 | 1.70 | 1.70 | 1007.7 | |
| 20260507000435 | -17 | 220 | 3.2 | 6.4 | 0.00 | 1.70 | 1.70 | 1007.6 | |
| 20260506235929 | -17 | 231 | 4.8 | 4.8 | 0.00 | 1.70 | 1.70 | 1007.6 | |
| 20260506235427 | -17 | 239 | 6.4 | 6.4 | 0.00 | 1.70 | 1.70 | 1007.8 | |
| 20260506234921 | -17 | 217 | 1.6 | 4.8 | 0.00 | 1.70 | 1.70 | 1007.6 | |
| 20260506234420 | -17 | 232 | 4.8 | 6.4 | 0.00 | 1.70 | 1.70 | 1007.5 | |
| 20260506233917 | -17 | 216 | 3.2 | 4.8 | 0.00 | 1.70 | 1.70 | 1007.6 | |
| 20260506233414 | -17 | 224 | 3.2 | 11.3 | 0.00 | 1.70 | 1.70 | 1007.3 | |
| 20260506232910 | -17 | 231 | 3.2 | 11.3 | 0.00 | 1.70 | 1.70 | 1007.2 | |
| 20260506232406 | -17 | 254 | 6.4 | 14.5 | 0.00 | 1.70 | 1.70 | 1007.5 | |
| 20260506231902 | -17 | 264 | 6.4 | 9.7 | 0.00 | 1.70 | 1.70 | 1007.4 | |
| 20260506231400 | -17 | 333 | 14.5 | 17.7 | 0.00 | 1.70 | 1.70 | 1007.4 | |
| 20260506230857 | -17 | 299 | 8.0 | 16.1 | 0.00 | 1.70 | 1.70 | 1007.4 | |
| 20260506230353 | -17 | 284 | 9.7 | 17.7 | 0.00 | 1.70 | 1.70 | 1007.4 | |
| 20260506225844 | -17 | 322 | 11.3 | 14.5 | 0.00 | 1.70 | 1.70 | 1007.5 | |
| 20260506225342 | -17 | 235 | 8.0 | 11.3 | 0.00 | 1.70 | 1.70 | 1007.4 | |
| 20260506224839 | -17 | 259 | 11.3 | 14.5 | 0.00 | 1.70 | 1.70 | 1007.3 | |
| 20260506224336 | -17 | 322 | 11.3 | 14.5 | 0.00 | 1.70 | 1.70 | 1007.2 | |
| 20260506223832 | -17 | 314 | 12.9 | 16.1 | 0.00 | 1.70 | 1.70 | 1007.2 | |
| 20260506223327 | -17 | 291 | 8.0 | 14.5 | 0.00 | 1.70 | 1.70 | 1006.8 | |
| 20260506222825 | -17 | 250 | 12.9 | 20.9 | 0.00 | 1.70 | 1.70 | 1006.7 | |
| 20260506222320 | -17 | 253 | 6.4 | 12.9 | 0.00 | 1.70 | 1.70 | 1006.7 | |
| 20260506221818 | -17 | 353 | 12.9 | 16.1 | 0.00 | 1.70 | 1.70 | 1006.5 | |
| 20260506221316 | -17 | 277 | 8.0 | 11.3 | 0.00 | 1.70 | 1.70 | 1006.4 | |
| 20260506220813 | -17 | 329 | 14.5 | 17.7 | 0.00 | 1.70 | 1.70 | 1006.4 | |
| 20260506220313 | -17 | 253 | 9.7 | 14.5 | 0.00 | 1.70 | 1.70 | 1006.5 | |
| 20260506215810 | -17 | 228 | 11.3 | 14.5 | 0.00 | 1.70 | 1.70 | 1006.3 | |
| 20260506215306 | -17 | 296 | 9.7 | 12.9 | 0.00 | 1.70 | 1.70 | 1006.2 | |
| 20260506214802 | -17 | 281 | 9.7 | 17.7 | 0.00 | 1.70 | 1.70 | 1006.2 | |
| 20260506214259 | -17 | 299 | 11.3 | 14.5 | 0.00 | 1.70 | 1.70 | 1006.4 | |
| 20260506213758 | -17 | 242 | 8.0 | 14.5 | 0.00 | 1.70 | 1.70 | 1006.4 | |
| 20260506213254 | -17 | 232 | 6.4 | 17.7 | 0.00 | 1.70 | 1.70 | 1006.1 | |
| 20260506212752 | -17 | 249 | 9.7 | 22.5 | 0.00 | 1.70 | 1.70 | 1006.0 | |
| 20260506212247 | -17 | 237 | 4.8 | 12.9 | 0.00 | 1.70 | 1.70 | 1006.0 | |
| 20260506211742 | -17 | 259 | 9.7 | 17.7 | 0.00 | 1.70 | 1.70 | 1005.9 | |
| 20260506211239 | -17 | 314 | 11.3 | 20.9 | 0.00 | 1.70 | 1.70 | 1005.7 | |
| 20260506210736 | -17 | 222 | 6.4 | 14.5 | 0.00 | 1.70 | 1.70 | 1005.5 | |
| 20260506210233 | -17 | 263 | 9.7 | 20.9 | 0.00 | 1.70 | 1.70 | 1005.4 | |
| 20260506205730 | -17 | 257 | 6.4 | 17.7 | 0.00 | 1.70 | 1.70 | 1005.5 | |
| 20260506205225 | -17 | 239 | 9.7 | 14.5 | 0.00 | 1.70 | 1.70 | 1005.2 | |
| 20260506204718 | -17 | 262 | 6.4 | 17.7 | 0.00 | 1.70 | 1.70 | 1005.1 | |
| 20260506204215 | -17 | 232 | 4.8 | 9.7 | 0.00 | 1.70 | 1.70 | 1005.1 | |
| 20260506203713 | -17 | 297 | 14.5 | 17.7 | 0.00 | 1.70 | 1.70 | 1004.9 |